Airfield :







YOU CAN JOIN US ON...

 
LOGIN :

Register | Disclaimer

   EN    FR    IT 

 









Legend :    VFR   Marginal VFR   IFR   Intensive IFR   Very Intensive IFR
Visi :
Ceiling :
>= 8 km
>= 3000ft
5 to 8 km
1000 to 3000 ft
1500m to 5 km
500 to 1000 ft
800 to 1500m
200 to 500 ft
< 800m
< 200 ft
Symbols :   Thunderstorms  Fog  Heavy snow  Heavy precipitations  Wind > 20 kt







- Airport Elevation : 118 ft
- IATA code : YUL


CYUL - Montréal - Pierre-Elliott-Trudeau Int.

CURRENT METAR :
  • 242100Z 18006KT 130V200 30SM BKN210 25/06 A2983 RMK CS7 SLP104 DENSITY ALT 1400FT

EXPIRED METARs :
  • 242000Z 16005KT 15SM FEW180 BKN200 25/06 A2984 RMK AC1CS6 CI ASOCT SLP106 DENSITY ALT 1400FT
  • 241900Z 20004KT 110V280 30SM BKN200 25/06 A2985 RMK CI7 SLP109 DENSITY ALT 1500FT

TAF TAF CYUL
Valid from the 24 at 21:00 until the 25 at 18:00 UTC


242038Z 2421/2518 16008KT P6SM SCT160 BKN200
FM250800 07008KT P6SM BKN080 OVC200
FM251100 10008KT P6SM -SHRA OVC050
FM251200 10010KT P6SM -SHRA BKN025 OVC050
TEMPO 2512/2517 3SM SHRA BR VCTS OVC015CB
BECMG 2514/2516 14012G22KT RMK NXT FCST BY 250000Z
ATIS : ENG : +1 514-633-3037 FRA : +1 514-633-3034
CZUL FIR / North America



MET'MAP, your aeronautical weather chart ! - Copyright ORBIFLY December 2007 - Disclaimer

ORBIFLY MET'MAP TEAM :

Programming & Development : Alexandra Zaïnal
Concept & Development : Baudouin d'Aumeries
Co-Development & Prog : Marc-Olivier Méhu
Technical & hardware support : Manuel Goepfert

Contact : metmap@orbifly.com




SOURCES & CREDITS :

   NOAA